sensor_id;sensor_type;location;lat;lon;timestamp;P1;durP1;ratioP1;P2;durP2;ratioP2
30420;SDS011;17218;54.070;10.012;2023-09-07T00:00:58;3.60;;;3.15;;
30420;SDS011;17218;54.070;10.012;2023-09-07T00:03:24;4.43;;;3.15;;
30420;SDS011;17218;54.070;10.012;2023-09-07T00:05:51;5.38;;;2.97;;
30420;SDS011;17218;54.070;10.012;2023-09-07T00:08:17;3.97;;;3.00;;
30420;SDS011;17218;54.070;10.012;2023-09-07T00:10:45;2.83;;;2.63;;
30420;SDS011;17218;54.070;10.012;2023-09-07T00:13:12;3.00;;;2.70;;
30420;SDS011;17218;54.070;10.012;2023-09-07T00:15:38;3.67;;;2.85;;
30420;SDS011;17218;54.070;10.012;2023-09-07T00:18:04;3.20;;;2.90;;
30420;SDS011;17218;54.070;10.012;2023-09-07T00:20:31;3.20;;;2.90;;
30420;SDS011;17218;54.070;10.012;2023-09-07T00:22:58;3.58;;;3.28;;
30420;SDS011;17218;54.070;10.012;2023-09-07T00:25:26;3.35;;;2.95;;
30420;SDS011;17218;54.070;10.012;2023-09-07T00:27:54;4.50;;;3.63;;
30420;SDS011;17218;54.070;10.012;2023-09-07T00:30:20;3.22;;;2.92;;
30420;SDS011;17218;54.070;10.012;2023-09-07T00:32:47;3.13;;;2.88;;
30420;SDS011;17218;54.070;10.012;2023-09-07T00:35:13;3.25;;;2.58;;
30420;SDS011;17218;54.070;10.012;2023-09-07T00:37:40;3.03;;;2.83;;
30420;SDS011;17218;54.070;10.012;2023-09-07T00:40:07;3.25;;;2.95;;
30420;SDS011;17218;54.070;10.012;2023-09-07T00:42:35;3.30;;;3.00;;
30420;SDS011;17218;54.070;10.012;2023-09-07T00:45:03;3.90;;;3.10;;
30420;SDS011;17218;54.070;10.012;2023-09-07T00:47:31;3.35;;;3.05;;
30420;SDS011;17218;54.070;10.012;2023-09-07T00:50:00;3.92;;;3.13;;
30420;SDS011;17218;54.070;10.012;2023-09-07T00:52:26;3.78;;;3.40;;
30420;SDS011;17218;54.070;10.012;2023-09-07T00:54:53;4.40;;;3.83;;
30420;SDS011;17218;54.070;10.012;2023-09-07T00:57:20;4.43;;;3.90;;
30420;SDS011;17218;54.070;10.012;2023-09-07T00:59:46;4.30;;;3.88;;
30420;SDS011;17218;54.070;10.012;2023-09-07T01:02:14;5.05;;;3.75;;
30420;SDS011;17218;54.070;10.012;2023-09-07T01:04:41;4.13;;;3.78;;
30420;SDS011;17218;54.070;10.012;2023-09-07T01:07:09;4.28;;;3.38;;
30420;SDS011;17218;54.070;10.012;2023-09-07T01:09:41;4.68;;;3.90;;
30420;SDS011;17218;54.070;10.012;2023-09-07T01:12:13;4.32;;;3.92;;
30420;SDS011;17218;54.070;10.012;2023-09-07T01:14:40;4.05;;;3.65;;
30420;SDS011;17218;54.070;10.012;2023-09-07T01:17:06;5.10;;;3.90;;
30420;SDS011;17218;54.070;10.012;2023-09-07T01:19:35;4.18;;;3.78;;
30420;SDS011;17218;54.070;10.012;2023-09-07T01:22:04;5.70;;;3.95;;
30420;SDS011;17218;54.070;10.012;2023-09-07T01:24:31;5.25;;;4.20;;
30420;SDS011;17218;54.070;10.012;2023-09-07T01:27:00;4.03;;;3.42;;
30420;SDS011;17218;54.070;10.012;2023-09-07T01:29:28;3.80;;;3.50;;
30420;SDS011;17218;54.070;10.012;2023-09-07T01:31:54;4.50;;;4.10;;
30420;SDS011;17218;54.070;10.012;2023-09-07T01:34:21;4.43;;;3.80;;
30420;SDS011;17218;54.070;10.012;2023-09-07T01:36:48;4.25;;;3.88;;
30420;SDS011;17218;54.070;10.012;2023-09-07T01:39:16;5.75;;;4.45;;
30420;SDS011;17218;54.070;10.012;2023-09-07T01:41:43;5.20;;;4.20;;
30420;SDS011;17218;54.070;10.012;2023-09-07T01:44:09;4.68;;;4.25;;
30420;SDS011;17218;54.070;10.012;2023-09-07T01:46:36;6.65;;;4.78;;
30420;SDS011;17218;54.070;10.012;2023-09-07T01:49:02;4.55;;;4.10;;
30420;SDS011;17218;54.070;10.012;2023-09-07T01:51:29;4.55;;;4.15;;
30420;SDS011;17218;54.070;10.012;2023-09-07T01:53:55;4.57;;;4.13;;
30420;SDS011;17218;54.070;10.012;2023-09-07T01:56:23;5.10;;;4.38;;
30420;SDS011;17218;54.070;10.012;2023-09-07T01:58:49;5.05;;;4.60;;
30420;SDS011;17218;54.070;10.012;2023-09-07T02:01:23;4.60;;;4.20;;
30420;SDS011;17218;54.070;10.012;2023-09-07T02:03:50;5.20;;;4.45;;
30420;SDS011;17218;54.070;10.012;2023-09-07T02:06:16;5.05;;;4.65;;
30420;SDS011;17218;54.070;10.012;2023-09-07T02:08:43;5.93;;;4.60;;
30420;SDS011;17218;54.070;10.012;2023-09-07T02:11:09;6.15;;;4.38;;
30420;SDS011;17218;54.070;10.012;2023-09-07T02:13:37;6.10;;;4.72;;
30420;SDS011;17218;54.070;10.012;2023-09-07T02:16:07;4.32;;;3.80;;
30420;SDS011;17218;54.070;10.012;2023-09-07T02:18:33;4.88;;;4.38;;
30420;SDS011;17218;54.070;10.012;2023-09-07T02:21:03;4.25;;;3.85;;
30420;SDS011;17218;54.070;10.012;2023-09-07T02:23:30;4.22;;;3.83;;
30420;SDS011;17218;54.070;10.012;2023-09-07T02:25:57;5.63;;;4.20;;
30420;SDS011;17218;54.070;10.012;2023-09-07T02:28:23;4.85;;;4.30;;
30420;SDS011;17218;54.070;10.012;2023-09-07T02:30:51;5.85;;;4.18;;
30420;SDS011;17218;54.070;10.012;2023-09-07T02:33:18;4.65;;;3.70;;
30420;SDS011;17218;54.070;10.012;2023-09-07T02:35:45;5.53;;;4.22;;
30420;SDS011;17218;54.070;10.012;2023-09-07T02:38:13;4.57;;;4.18;;
30420;SDS011;17218;54.070;10.012;2023-09-07T02:40:40;5.00;;;3.90;;
30420;SDS011;17218;54.070;10.012;2023-09-07T02:43:07;4.45;;;4.05;;
30420;SDS011;17218;54.070;10.012;2023-09-07T02:45:34;4.45;;;3.95;;
30420;SDS011;17218;54.070;10.012;2023-09-07T02:48:02;5.47;;;4.43;;
30420;SDS011;17218;54.070;10.012;2023-09-07T02:50:29;5.10;;;4.22;;
30420;SDS011;17218;54.070;10.012;2023-09-07T02:52:56;4.97;;;4.20;;
30420;SDS011;17218;54.070;10.012;2023-09-07T02:55:23;5.43;;;3.83;;
30420;SDS011;17218;54.070;10.012;2023-09-07T02:57:49;4.90;;;4.40;;
30420;SDS011;17218;54.070;10.012;2023-09-07T03:00:16;5.03;;;3.60;;
30420;SDS011;17218;54.070;10.012;2023-09-07T03:02:42;5.07;;;3.85;;
30420;SDS011;17218;54.070;10.012;2023-09-07T03:05:10;4.35;;;3.97;;
30420;SDS011;17218;54.070;10.012;2023-09-07T03:07:37;3.47;;;3.17;;
30420;SDS011;17218;54.070;10.012;2023-09-07T03:10:04;4.47;;;3.78;;
30420;SDS011;17218;54.070;10.012;2023-09-07T03:12:31;5.50;;;4.07;;
30420;SDS011;17218;54.070;10.012;2023-09-07T03:14:58;4.53;;;3.72;;
30420;SDS011;17218;54.070;10.012;2023-09-07T03:17:28;4.32;;;3.92;;
30420;SDS011;17218;54.070;10.012;2023-09-07T03:19:55;4.45;;;3.40;;
30420;SDS011;17218;54.070;10.012;2023-09-07T03:22:23;4.18;;;3.78;;
30420;SDS011;17218;54.070;10.012;2023-09-07T03:24:50;3.95;;;3.65;;
30420;SDS011;17218;54.070;10.012;2023-09-07T03:34:00;4.28;;;3.78;;
30420;SDS011;17218;54.070;10.012;2023-09-07T03:36:27;3.10;;;2.83;;
30420;SDS011;17218;54.070;10.012;2023-09-07T03:38:54;4.15;;;3.58;;
30420;SDS011;17218;54.070;10.012;2023-09-07T03:41:21;4.68;;;3.83;;
30420;SDS011;17218;54.070;10.012;2023-09-07T03:43:47;4.38;;;3.67;;
30420;SDS011;17218;54.070;10.012;2023-09-07T03:46:14;6.15;;;3.70;;
30420;SDS011;17218;54.070;10.012;2023-09-07T03:48:40;4.78;;;3.22;;
30420;SDS011;17218;54.070;10.012;2023-09-07T03:51:07;8.23;;;3.60;;
30420;SDS011;17218;54.070;10.012;2023-09-07T03:53:33;3.92;;;3.53;;
30420;SDS011;17218;54.070;10.012;2023-09-07T03:56:01;3.15;;;2.85;;
30420;SDS011;17218;54.070;10.012;2023-09-07T03:58:29;3.42;;;3.13;;
30420;SDS011;17218;54.070;10.012;2023-09-07T04:00:58;4.28;;;3.88;;
30420;SDS011;17218;54.070;10.012;2023-09-07T04:03:25;3.20;;;2.90;;
30420;SDS011;17218;54.070;10.012;2023-09-07T04:05:51;5.45;;;3.65;;
30420;SDS011;17218;54.070;10.012;2023-09-07T04:08:18;3.60;;;3.30;;
30420;SDS011;17218;54.070;10.012;2023-09-07T04:10:44;3.70;;;3.40;;
30420;SDS011;17218;54.070;10.012;2023-09-07T04:13:12;4.05;;;3.65;;
30420;SDS011;17218;54.070;10.012;2023-09-07T04:15:43;5.00;;;3.67;;
30420;SDS011;17218;54.070;10.012;2023-09-07T04:18:10;3.80;;;3.50;;
30420;SDS011;17218;54.070;10.012;2023-09-07T04:20:37;4.07;;;3.67;;
30420;SDS011;17218;54.070;10.012;2023-09-07T04:23:04;4.32;;;3.72;;
30420;SDS011;17218;54.070;10.012;2023-09-07T04:25:31;3.50;;;3.20;;
30420;SDS011;17218;54.070;10.012;2023-09-07T04:27:58;4.15;;;3.75;;
30420;SDS011;17218;54.070;10.012;2023-09-07T04:30:26;5.07;;;3.20;;
30420;SDS011;17218;54.070;10.012;2023-09-07T04:32:53;3.67;;;3.38;;
30420;SDS011;17218;54.070;10.012;2023-09-07T04:35:19;6.03;;;3.53;;
30420;SDS011;17218;54.070;10.012;2023-09-07T04:37:45;3.78;;;3.40;;
30420;SDS011;17218;54.070;10.012;2023-09-07T04:40:12;4.63;;;3.40;;
30420;SDS011;17218;54.070;10.012;2023-09-07T04:42:39;5.57;;;4.53;;
30420;SDS011;17218;54.070;10.012;2023-09-07T04:45:06;3.53;;;3.10;;
30420;SDS011;17218;54.070;10.012;2023-09-07T04:47:35;4.13;;;3.70;;
30420;SDS011;17218;54.070;10.012;2023-09-07T04:50:02;6.50;;;3.78;;
30420;SDS011;17218;54.070;10.012;2023-09-07T04:52:29;3.83;;;3.13;;
30420;SDS011;17218;54.070;10.012;2023-09-07T04:54:55;3.78;;;3.40;;
30420;SDS011;17218;54.070;10.012;2023-09-07T04:57:22;3.95;;;3.38;;
30420;SDS011;17218;54.070;10.012;2023-09-07T04:59:48;3.67;;;3.38;;
30420;SDS011;17218;54.070;10.012;2023-09-07T05:02:15;3.90;;;3.50;;
30420;SDS011;17218;54.070;10.012;2023-09-07T05:04:43;3.92;;;3.47;;
30420;SDS011;17218;54.070;10.012;2023-09-07T05:07:10;3.28;;;2.97;;
30420;SDS011;17218;54.070;10.012;2023-09-07T05:09:37;5.15;;;4.50;;
30420;SDS011;17218;54.070;10.012;2023-09-07T05:12:04;5.78;;;3.78;;
30420;SDS011;17218;54.070;10.012;2023-09-07T05:14:31;4.18;;;3.78;;
30420;SDS011;17218;54.070;10.012;2023-09-07T05:16:57;4.03;;;3.55;;
30420;SDS011;17218;54.070;10.012;2023-09-07T05:19:24;4.55;;;3.53;;
30420;SDS011;17218;54.070;10.012;2023-09-07T05:21:51;4.82;;;3.95;;
30420;SDS011;17218;54.070;10.012;2023-09-07T05:24:18;5.20;;;4.13;;
30420;SDS011;17218;54.070;10.012;2023-09-07T05:26:44;4.45;;;3.75;;
30420;SDS011;17218;54.070;10.012;2023-09-07T05:29:11;4.45;;;3.95;;
30420;SDS011;17218;54.070;10.012;2023-09-07T05:31:38;4.63;;;4.05;;
30420;SDS011;17218;54.070;10.012;2023-09-07T05:34:04;5.43;;;3.95;;
30420;SDS011;17218;54.070;10.012;2023-09-07T05:36:31;4.72;;;3.75;;
30420;SDS011;17218;54.070;10.012;2023-09-07T05:38:59;4.60;;;4.20;;
30420;SDS011;17218;54.070;10.012;2023-09-07T05:41:26;5.13;;;3.95;;
30420;SDS011;17218;54.070;10.012;2023-09-07T05:43:53;5.85;;;4.95;;
30420;SDS011;17218;54.070;10.012;2023-09-07T05:46:19;5.22;;;4.70;;
30420;SDS011;17218;54.070;10.012;2023-09-07T05:48:46;6.60;;;5.13;;
30420;SDS011;17218;54.070;10.012;2023-09-07T05:51:13;5.28;;;4.75;;
30420;SDS011;17218;54.070;10.012;2023-09-07T05:53:39;6.72;;;4.30;;
30420;SDS011;17218;54.070;10.012;2023-09-07T05:56:07;5.45;;;4.95;;
30420;SDS011;17218;54.070;10.012;2023-09-07T05:58:33;5.72;;;5.10;;
30420;SDS011;17218;54.070;10.012;2023-09-07T06:01:00;4.63;;;4.22;;
30420;SDS011;17218;54.070;10.012;2023-09-07T06:03:27;4.75;;;3.80;;
30420;SDS011;17218;54.070;10.012;2023-09-07T06:05:53;6.95;;;4.70;;
30420;SDS011;17218;54.070;10.012;2023-09-07T06:08:20;5.20;;;4.70;;
30420;SDS011;17218;54.070;10.012;2023-09-07T06:10:47;6.95;;;4.00;;
30420;SDS011;17218;54.070;10.012;2023-09-07T06:13:15;4.75;;;4.30;;
30420;SDS011;17218;54.070;10.012;2023-09-07T06:15:42;6.03;;;5.05;;
30420;SDS011;17218;54.070;10.012;2023-09-07T06:18:08;6.82;;;5.30;;
30420;SDS011;17218;54.070;10.012;2023-09-07T06:20:34;5.60;;;4.78;;
30420;SDS011;17218;54.070;10.012;2023-09-07T06:23:01;6.30;;;5.68;;
30420;SDS011;17218;54.070;10.012;2023-09-07T06:25:27;5.63;;;5.03;;
30420;SDS011;17218;54.070;10.012;2023-09-07T06:27:54;5.82;;;5.13;;
30420;SDS011;17218;54.070;10.012;2023-09-07T06:30:22;6.07;;;5.40;;
30420;SDS011;17218;54.070;10.012;2023-09-07T06:32:48;7.88;;;5.90;;
30420;SDS011;17218;54.070;10.012;2023-09-07T06:35:16;6.15;;;5.10;;
30420;SDS011;17218;54.070;10.012;2023-09-07T06:37:43;5.25;;;4.75;;
30420;SDS011;17218;54.070;10.012;2023-09-07T06:40:10;5.72;;;5.22;;
30420;SDS011;17218;54.070;10.012;2023-09-07T06:42:36;5.25;;;4.75;;
30420;SDS011;17218;54.070;10.012;2023-09-07T06:45:03;5.97;;;5.38;;
30420;SDS011;17218;54.070;10.012;2023-09-07T06:47:32;5.20;;;4.78;;
30420;SDS011;17218;54.070;10.012;2023-09-07T06:49:58;6.28;;;5.05;;
30420;SDS011;17218;54.070;10.012;2023-09-07T06:52:25;4.95;;;4.45;;
30420;SDS011;17218;54.070;10.012;2023-09-07T06:54:52;8.02;;;4.63;;
30420;SDS011;17218;54.070;10.012;2023-09-07T06:57:19;4.97;;;4.53;;
30420;SDS011;17218;54.070;10.012;2023-09-07T06:59:46;4.25;;;3.85;;
30420;SDS011;17218;54.070;10.012;2023-09-07T07:02:13;4.80;;;4.40;;
30420;SDS011;17218;54.070;10.012;2023-09-07T07:04:41;5.18;;;4.68;;
30420;SDS011;17218;54.070;10.012;2023-09-07T07:07:08;5.53;;;4.50;;
30420;SDS011;17218;54.070;10.012;2023-09-07T07:09:36;5.70;;;4.43;;
30420;SDS011;17218;54.070;10.012;2023-09-07T07:12:02;4.43;;;4.03;;
30420;SDS011;17218;54.070;10.012;2023-09-07T07:14:30;5.25;;;4.55;;
30420;SDS011;17218;54.070;10.012;2023-09-07T07:16:56;6.05;;;4.05;;
30420;SDS011;17218;54.070;10.012;2023-09-07T07:19:22;6.20;;;4.13;;
30420;SDS011;17218;54.070;10.012;2023-09-07T07:21:51;5.72;;;4.57;;
30420;SDS011;17218;54.070;10.012;2023-09-07T07:24:17;4.63;;;4.05;;
30420;SDS011;17218;54.070;10.012;2023-09-07T07:26:43;5.55;;;4.35;;
30420;SDS011;17218;54.070;10.012;2023-09-07T07:29:10;5.95;;;4.97;;
30420;SDS011;17218;54.070;10.012;2023-09-07T07:31:37;4.75;;;4.05;;
30420;SDS011;17218;54.070;10.012;2023-09-07T07:34:03;5.32;;;4.10;;
30420;SDS011;17218;54.070;10.012;2023-09-07T07:36:30;4.53;;;3.72;;
30420;SDS011;17218;54.070;10.012;2023-09-07T07:38:58;5.47;;;3.55;;
30420;SDS011;17218;54.070;10.012;2023-09-07T07:41:24;4.68;;;4.10;;
30420;SDS011;17218;54.070;10.012;2023-09-07T07:43:51;4.03;;;3.63;;
30420;SDS011;17218;54.070;10.012;2023-09-07T07:46:17;5.57;;;4.07;;
30420;SDS011;17218;54.070;10.012;2023-09-07T07:48:44;4.22;;;3.75;;
30420;SDS011;17218;54.070;10.012;2023-09-07T07:51:11;5.57;;;4.03;;
30420;SDS011;17218;54.070;10.012;2023-09-07T07:53:37;3.90;;;3.35;;
30420;SDS011;17218;54.070;10.012;2023-09-07T07:56:05;5.20;;;4.20;;
30420;SDS011;17218;54.070;10.012;2023-09-07T07:58:31;5.57;;;3.97;;
30420;SDS011;17218;54.070;10.012;2023-09-07T08:00:58;4.55;;;3.88;;
30420;SDS011;17218;54.070;10.012;2023-09-07T08:03:24;5.78;;;4.47;;
30420;SDS011;17218;54.070;10.012;2023-09-07T08:05:51;3.90;;;3.50;;
30420;SDS011;17218;54.070;10.012;2023-09-07T08:08:17;4.18;;;3.78;;
30420;SDS011;17218;54.070;10.012;2023-09-07T08:10:44;4.63;;;4.18;;
30420;SDS011;17218;54.070;10.012;2023-09-07T08:13:12;4.70;;;3.63;;
30420;SDS011;17218;54.070;10.012;2023-09-07T08:15:39;4.88;;;3.72;;
30420;SDS011;17218;54.070;10.012;2023-09-07T08:18:06;4.20;;;3.28;;
30420;SDS011;17218;54.070;10.012;2023-09-07T08:20:34;4.80;;;3.92;;
30420;SDS011;17218;54.070;10.012;2023-09-07T08:23:01;4.30;;;3.47;;
30420;SDS011;17218;54.070;10.012;2023-09-07T08:25:32;6.82;;;3.80;;
30420;SDS011;17218;54.070;10.012;2023-09-07T08:27:58;3.75;;;3.38;;
30420;SDS011;17218;54.070;10.012;2023-09-07T08:30:26;4.10;;;3.78;;
30420;SDS011;17218;54.070;10.012;2023-09-07T08:32:52;4.03;;;3.65;;
30420;SDS011;17218;54.070;10.012;2023-09-07T08:35:20;3.58;;;3.28;;
30420;SDS011;17218;54.070;10.012;2023-09-07T08:37:51;3.80;;;3.50;;
30420;SDS011;17218;54.070;10.012;2023-09-07T08:40:18;4.20;;;3.50;;
30420;SDS011;17218;54.070;10.012;2023-09-07T08:42:45;4.07;;;3.40;;
30420;SDS011;17218;54.070;10.012;2023-09-07T08:45:12;3.40;;;3.15;;
30420;SDS011;17218;54.070;10.012;2023-09-07T08:47:43;3.88;;;3.50;;
30420;SDS011;17218;54.070;10.012;2023-09-07T08:50:11;4.25;;;3.25;;
30420;SDS011;17218;54.070;10.012;2023-09-07T08:52:39;3.30;;;3.00;;
30420;SDS011;17218;54.070;10.012;2023-09-07T08:55:07;3.63;;;3.20;;
30420;SDS011;17218;54.070;10.012;2023-09-07T08:57:36;3.92;;;3.60;;
30420;SDS011;17218;54.070;10.012;2023-09-07T09:00:03;3.97;;;3.53;;
30420;SDS011;17218;54.070;10.012;2023-09-07T09:02:33;3.35;;;3.05;;
30420;SDS011;17218;54.070;10.012;2023-09-07T09:05:03;3.65;;;3.30;;
30420;SDS011;17218;54.070;10.012;2023-09-07T09:07:31;3.90;;;3.60;;
30420;SDS011;17218;54.070;10.012;2023-09-07T09:10:04;3.40;;;2.78;;
30420;SDS011;17218;54.070;10.012;2023-09-07T09:12:31;3.22;;;3.00;;
30420;SDS011;17218;54.070;10.012;2023-09-07T09:14:58;3.63;;;2.97;;
30420;SDS011;17218;54.070;10.012;2023-09-07T09:17:25;3.40;;;3.10;;
30420;SDS011;17218;54.070;10.012;2023-09-07T09:19:52;3.45;;;2.97;;
30420;SDS011;17218;54.070;10.012;2023-09-07T09:22:19;3.22;;;2.92;;
30420;SDS011;17218;54.070;10.012;2023-09-07T09:24:47;3.70;;;3.13;;
30420;SDS011;17218;54.070;10.012;2023-09-07T09:27:13;3.42;;;3.13;;
30420;SDS011;17218;54.070;10.012;2023-09-07T09:29:40;3.60;;;3.13;;
30420;SDS011;17218;54.070;10.012;2023-09-07T09:32:07;3.53;;;3.22;;
30420;SDS011;17218;54.070;10.012;2023-09-07T09:34:34;4.63;;;3.50;;
30420;SDS011;17218;54.070;10.012;2023-09-07T09:37:01;3.60;;;3.30;;
30420;SDS011;17218;54.070;10.012;2023-09-07T09:39:30;3.65;;;3.20;;
30420;SDS011;17218;54.070;10.012;2023-09-07T09:41:56;4.65;;;3.17;;
30420;SDS011;17218;54.070;10.012;2023-09-07T09:44:24;3.88;;;3.58;;
30420;SDS011;17218;54.070;10.012;2023-09-07T09:46:51;3.35;;;3.05;;
30420;SDS011;17218;54.070;10.012;2023-09-07T09:49:19;3.50;;;3.20;;
30420;SDS011;17218;54.070;10.012;2023-09-07T09:51:47;3.35;;;2.97;;
30420;SDS011;17218;54.070;10.012;2023-09-07T09:54:16;3.90;;;3.50;;
30420;SDS011;17218;54.070;10.012;2023-09-07T09:56:44;3.85;;;3.00;;
30420;SDS011;17218;54.070;10.012;2023-09-07T09:59:11;3.33;;;2.83;;
30420;SDS011;17218;54.070;10.012;2023-09-07T10:01:39;3.42;;;3.13;;
30420;SDS011;17218;54.070;10.012;2023-09-07T10:04:09;3.45;;;2.90;;
30420;SDS011;17218;54.070;10.012;2023-09-07T10:06:38;3.88;;;3.40;;
30420;SDS011;17218;54.070;10.012;2023-09-07T10:09:04;3.80;;;3.10;;
30420;SDS011;17218;54.070;10.012;2023-09-07T10:11:35;3.45;;;3.15;;
30420;SDS011;17218;54.070;10.012;2023-09-07T10:14:05;4.47;;;3.17;;
30420;SDS011;17218;54.070;10.012;2023-09-07T10:16:42;3.83;;;3.30;;
30420;SDS011;17218;54.070;10.012;2023-09-07T10:19:15;3.67;;;2.97;;
30420;SDS011;17218;54.070;10.012;2023-09-07T10:21:42;3.53;;;2.83;;
30420;SDS011;17218;54.070;10.012;2023-09-07T10:24:09;3.00;;;2.70;;
30420;SDS011;17218;54.070;10.012;2023-09-07T10:26:36;3.78;;;2.97;;
30420;SDS011;17218;54.070;10.012;2023-09-07T10:29:03;3.22;;;2.92;;
30420;SDS011;17218;54.070;10.012;2023-09-07T10:31:31;3.10;;;2.80;;
30420;SDS011;17218;54.070;10.012;2023-09-07T10:34:07;3.95;;;2.60;;
30420;SDS011;17218;54.070;10.012;2023-09-07T10:36:34;2.90;;;2.70;;
30420;SDS011;17218;54.070;10.012;2023-09-07T10:39:02;2.92;;;2.70;;
30420;SDS011;17218;54.070;10.012;2023-09-07T10:41:38;5.93;;;2.70;;
30420;SDS011;17218;54.070;10.012;2023-09-07T10:44:07;2.50;;;2.30;;
30420;SDS011;17218;54.070;10.012;2023-09-07T10:46:35;4.50;;;2.50;;
30420;SDS011;17218;54.070;10.012;2023-09-07T10:49:03;3.30;;;3.00;;
30420;SDS011;17218;54.070;10.012;2023-09-07T10:51:33;3.47;;;2.47;;
30420;SDS011;17218;54.070;10.012;2023-09-07T10:54:12;2.47;;;2.28;;
30420;SDS011;17218;54.070;10.012;2023-09-07T10:56:40;2.92;;;2.50;;
30420;SDS011;17218;54.070;10.012;2023-09-07T10:59:08;2.83;;;2.58;;
30420;SDS011;17218;54.070;10.012;2023-09-07T11:01:34;2.50;;;2.30;;
30420;SDS011;17218;54.070;10.012;2023-09-07T11:04:01;2.60;;;2.40;;
30420;SDS011;17218;54.070;10.012;2023-09-07T11:06:27;2.30;;;2.10;;
30420;SDS011;17218;54.070;10.012;2023-09-07T11:08:54;2.80;;;2.30;;
30420;SDS011;17218;54.070;10.012;2023-09-07T11:11:20;2.60;;;2.40;;
30420;SDS011;17218;54.070;10.012;2023-09-07T11:13:48;2.72;;;2.15;;
30420;SDS011;17218;54.070;10.012;2023-09-07T11:16:15;1.90;;;1.77;;
30420;SDS011;17218;54.070;10.012;2023-09-07T11:18:43;2.42;;;2.10;;
30420;SDS011;17218;54.070;10.012;2023-09-07T11:21:11;4.45;;;2.25;;
30420;SDS011;17218;54.070;10.012;2023-09-07T11:23:37;2.75;;;2.40;;
30420;SDS011;17218;54.070;10.012;2023-09-07T11:26:04;2.10;;;1.90;;
30420;SDS011;17218;54.070;10.012;2023-09-07T11:28:31;2.17;;;1.98;;
30420;SDS011;17218;54.070;10.012;2023-09-07T11:30:58;2.80;;;1.77;;
30420;SDS011;17218;54.070;10.012;2023-09-07T11:33:26;2.85;;;1.95;;
30420;SDS011;17218;54.070;10.012;2023-09-07T11:35:57;2.50;;;2.20;;
30420;SDS011;17218;54.070;10.012;2023-09-07T11:38:28;2.00;;;1.70;;
30420;SDS011;17218;54.070;10.012;2023-09-07T11:40:56;1.98;;;1.77;;
30420;SDS011;17218;54.070;10.012;2023-09-07T11:43:22;2.08;;;1.98;;
30420;SDS011;17218;54.070;10.012;2023-09-07T11:45:49;1.95;;;1.83;;
30420;SDS011;17218;54.070;10.012;2023-09-07T11:48:15;2.10;;;1.90;;
30420;SDS011;17218;54.070;10.012;2023-09-07T11:50:43;3.17;;;2.58;;
30420;SDS011;17218;54.070;10.012;2023-09-07T11:53:10;2.35;;;2.15;;
30420;SDS011;17218;54.070;10.012;2023-09-07T11:55:36;2.35;;;2.15;;
30420;SDS011;17218;54.070;10.012;2023-09-07T11:58:04;2.80;;;2.22;;
30420;SDS011;17218;54.070;10.012;2023-09-07T12:00:31;2.50;;;2.30;;
30420;SDS011;17218;54.070;10.012;2023-09-07T12:02:57;2.80;;;2.60;;
30420;SDS011;17218;54.070;10.012;2023-09-07T12:05:23;2.85;;;2.45;;
30420;SDS011;17218;54.070;10.012;2023-09-07T12:07:51;2.75;;;2.55;;
30420;SDS011;17218;54.070;10.012;2023-09-07T12:10:17;2.67;;;2.47;;
30420;SDS011;17218;54.070;10.012;2023-09-07T12:12:44;2.08;;;1.95;;
30420;SDS011;17218;54.070;10.012;2023-09-07T12:15:10;2.60;;;2.40;;
30420;SDS011;17218;54.070;10.012;2023-09-07T12:17:37;3.40;;;2.47;;
30420;SDS011;17218;54.070;10.012;2023-09-07T12:20:04;3.75;;;2.72;;
30420;SDS011;17218;54.070;10.012;2023-09-07T12:22:34;2.45;;;2.25;;
30420;SDS011;17218;54.070;10.012;2023-09-07T12:25:04;4.30;;;2.45;;
30420;SDS011;17218;54.070;10.012;2023-09-07T12:27:32;2.47;;;2.22;;
30420;SDS011;17218;54.070;10.012;2023-09-07T12:29:59;3.15;;;2.85;;
30420;SDS011;17218;54.070;10.012;2023-09-07T12:32:25;2.83;;;2.38;;
30420;SDS011;17218;54.070;10.012;2023-09-07T12:34:52;3.13;;;2.83;;
30420;SDS011;17218;54.070;10.012;2023-09-07T12:37:19;2.30;;;2.10;;
30420;SDS011;17218;54.070;10.012;2023-09-07T12:39:48;2.50;;;2.30;;
30420;SDS011;17218;54.070;10.012;2023-09-07T12:42:16;2.38;;;2.05;;
30420;SDS011;17218;54.070;10.012;2023-09-07T12:44:43;2.00;;;1.90;;
30420;SDS011;17218;54.070;10.012;2023-09-07T12:47:09;2.70;;;2.50;;
30420;SDS011;17218;54.070;10.012;2023-09-07T12:49:36;2.65;;;2.45;;
30420;SDS011;17218;54.070;10.012;2023-09-07T12:52:02;2.17;;;1.98;;
30420;SDS011;17218;54.070;10.012;2023-09-07T12:54:33;2.35;;;2.15;;
30420;SDS011;17218;54.070;10.012;2023-09-07T12:57:00;2.15;;;2.00;;
30420;SDS011;17218;54.070;10.012;2023-09-07T12:59:28;2.88;;;2.30;;
30420;SDS011;17218;54.070;10.012;2023-09-07T13:01:54;2.55;;;2.35;;
30420;SDS011;17218;54.070;10.012;2023-09-07T13:04:21;3.47;;;2.25;;
30420;SDS011;17218;54.070;10.012;2023-09-07T13:06:48;2.63;;;2.42;;
30420;SDS011;17218;54.070;10.012;2023-09-07T13:09:14;3.38;;;2.63;;
30420;SDS011;17218;54.070;10.012;2023-09-07T13:11:40;2.65;;;2.45;;
30420;SDS011;17218;54.070;10.012;2023-09-07T13:14:07;2.60;;;2.40;;
30420;SDS011;17218;54.070;10.012;2023-09-07T13:16:35;2.60;;;1.95;;
30420;SDS011;17218;54.070;10.012;2023-09-07T13:19:01;2.97;;;2.47;;
30420;SDS011;17218;54.070;10.012;2023-09-07T13:21:28;2.28;;;2.08;;
30420;SDS011;17218;54.070;10.012;2023-09-07T13:23:54;2.25;;;2.05;;
30420;SDS011;17218;54.070;10.012;2023-09-07T13:26:21;2.20;;;1.98;;
30420;SDS011;17218;54.070;10.012;2023-09-07T13:28:47;2.30;;;2.10;;
30420;SDS011;17218;54.070;10.012;2023-09-07T13:31:14;2.42;;;2.20;;
30420;SDS011;17218;54.070;10.012;2023-09-07T13:33:41;2.70;;;2.28;;
30420;SDS011;17218;54.070;10.012;2023-09-07T13:36:08;2.40;;;2.20;;
30420;SDS011;17218;54.070;10.012;2023-09-07T13:38:35;3.80;;;2.75;;
30420;SDS011;17218;54.070;10.012;2023-09-07T13:41:02;2.92;;;2.20;;
30420;SDS011;17218;54.070;10.012;2023-09-07T13:43:28;2.17;;;1.88;;
30420;SDS011;17218;54.070;10.012;2023-09-07T13:45:55;2.25;;;2.10;;
30420;SDS011;17218;54.070;10.012;2023-09-07T13:48:21;2.63;;;2.20;;
30420;SDS011;17218;54.070;10.012;2023-09-07T13:50:49;2.22;;;2.03;;
30420;SDS011;17218;54.070;10.012;2023-09-07T13:53:16;2.30;;;2.10;;
30420;SDS011;17218;54.070;10.012;2023-09-07T13:55:42;2.60;;;2.40;;
30420;SDS011;17218;54.070;10.012;2023-09-07T13:58:11;2.60;;;2.17;;
30420;SDS011;17218;54.070;10.012;2023-09-07T14:00:37;2.20;;;2.00;;
30420;SDS011;17218;54.070;10.012;2023-09-07T14:03:04;3.63;;;2.67;;
30420;SDS011;17218;54.070;10.012;2023-09-07T14:05:30;3.08;;;2.50;;
30420;SDS011;17218;54.070;10.012;2023-09-07T14:07:58;2.47;;;2.28;;
30420;SDS011;17218;54.070;10.012;2023-09-07T14:10:25;2.70;;;2.50;;
30420;SDS011;17218;54.070;10.012;2023-09-07T14:12:51;2.65;;;2.45;;
30420;SDS011;17218;54.070;10.012;2023-09-07T14:15:17;2.63;;;2.42;;
30420;SDS011;17218;54.070;10.012;2023-09-07T14:17:44;2.50;;;2.30;;
30420;SDS011;17218;54.070;10.012;2023-09-07T14:20:11;2.63;;;2.42;;
30420;SDS011;17218;54.070;10.012;2023-09-07T14:22:37;4.95;;;2.58;;
30420;SDS011;17218;54.070;10.012;2023-09-07T14:25:05;4.15;;;2.65;;
30420;SDS011;17218;54.070;10.012;2023-09-07T14:27:33;2.88;;;2.65;;
30420;SDS011;17218;54.070;10.012;2023-09-07T14:29:59;3.03;;;2.83;;
30420;SDS011;17218;54.070;10.012;2023-09-07T14:32:25;3.30;;;3.00;;
30420;SDS011;17218;54.070;10.012;2023-09-07T14:34:52;2.75;;;2.55;;
30420;SDS011;17218;54.070;10.012;2023-09-07T14:37:18;4.15;;;2.90;;
30420;SDS011;17218;54.070;10.012;2023-09-07T14:39:45;2.95;;;2.67;;